createdAt,value
2023-01-31T00:01:48.715Z,97770.73
2023-01-31T00:07:10.730Z,97767.27
2023-01-31T00:12:33.537Z,97764.98
2023-01-31T00:17:55.506Z,97770.06
2023-01-31T00:23:17.431Z,97775.42
2023-01-31T00:28:40.126Z,97776.67
2023-01-31T00:34:02.429Z,97776.04
2023-01-31T00:39:24.481Z,97782.61
2023-01-31T00:44:46.159Z,97782.64
2023-01-31T00:50:08.873Z,97793.02
2023-01-31T00:55:31.163Z,97807.51
2023-01-31T01:00:53.175Z,97815.80
2023-01-31T01:06:15.302Z,97822.24
2023-01-31T01:11:36.894Z,97825.49
2023-01-31T01:16:59.277Z,97831.68
2023-01-31T01:22:21.777Z,97838.85
2023-01-31T01:27:43.777Z,97841.76
2023-01-31T01:33:06.310Z,97850.83
2023-01-31T01:38:29.206Z,97844.90
2023-01-31T01:43:53.923Z,97852.73
2023-01-31T01:49:33.735Z,97851.88
2023-01-31T01:55:00.424Z,97865.48
2023-01-31T02:00:24.787Z,97870.25
2023-01-31T02:05:49.957Z,97872.58
2023-01-31T02:11:27.397Z,97883.67
2023-01-31T02:16:49.195Z,97893.36
2023-01-31T02:22:32.687Z,97904.77
2023-01-31T02:28:28.714Z,97910.59
2023-01-31T02:34:00.847Z,97911.47
2023-01-31T02:39:34.204Z,97906.57
2023-01-31T02:45:23.865Z,97915.59
2023-01-31T02:51:06.203Z,97915.95
2023-01-31T02:56:33.289Z,97916.30
2023-01-31T03:01:59.009Z,97916.42
2023-01-31T03:07:26.937Z,97963.99
2023-01-31T03:13:04.362Z,97979.98
2023-01-31T03:18:49.609Z,97978.31
2023-01-31T03:24:14.486Z,97993.39
2023-01-31T03:29:39.220Z,97998.49
2023-01-31T03:35:01.605Z,98000.44
2023-01-31T03:40:27.873Z,97997.88
2023-01-31T03:46:00.448Z,98013.63
2023-01-31T03:51:28.835Z,98023.59
2023-01-31T03:57:00.149Z,98038.23
2023-01-31T04:02:27.163Z,98050.84
2023-01-31T04:07:50.142Z,98049.45
2023-01-31T04:13:16.625Z,98053.69
2023-01-31T04:18:38.893Z,98058.86
2023-01-31T04:24:00.898Z,98064.05
2023-01-31T04:29:23.035Z,98070.57
2023-01-31T04:34:44.908Z,98079.49
2023-01-31T04:40:11.542Z,98089.09
2023-01-31T04:45:33.558Z,98090.19
2023-01-31T04:50:55.483Z,98098.79
2023-01-31T04:56:17.802Z,98099.09
2023-01-31T05:01:39.647Z,98099.50
2023-01-31T05:07:01.834Z,98104.39
2023-01-31T05:12:23.496Z,98105.34
2023-01-31T05:17:45.269Z,98119.78
2023-01-31T05:23:07.348Z,98130.59
2023-01-31T05:28:29.461Z,98144.89
2023-01-31T05:33:51.085Z,98143.12
2023-01-31T05:39:13.058Z,98148.05
2023-01-31T05:44:35.113Z,98150.38
2023-01-31T05:49:57.173Z,98159.48
2023-01-31T05:55:20.098Z,98169.00
2023-01-31T06:00:42.193Z,98179.08
2023-01-31T06:06:05.325Z,98188.13
2023-01-31T06:11:27.508Z,98195.80
2023-01-31T06:16:49.460Z,98205.90
2023-01-31T06:22:13.923Z,98216.95
2023-01-31T06:27:36.292Z,98227.87
2023-01-31T06:33:04.031Z,98234.83
2023-01-31T06:38:25.713Z,98241.33
2023-01-31T06:43:48.014Z,98254.61
2023-01-31T06:49:13.872Z,98266.16
2023-01-31T06:54:38.578Z,98272.21
2023-01-31T07:00:00.173Z,98277.53
2023-01-31T07:05:22.815Z,98283.05
2023-01-31T07:10:48.322Z,98292.41
2023-01-31T07:16:10.294Z,98299.83
2023-01-31T07:21:33.500Z,98305.72
2023-01-31T07:26:55.185Z,98304.11
2023-01-31T07:32:17.137Z,98317.92
2023-01-31T07:37:40.827Z,98328.20
2023-01-31T07:43:02.505Z,98331.40
2023-01-31T07:48:24.533Z,98334.64
2023-01-31T07:53:46.687Z,98338.54
2023-01-31T07:59:08.864Z,98341.38
2023-01-31T08:04:30.920Z,98338.02
2023-01-31T08:09:52.727Z,98342.89
2023-01-31T08:15:14.707Z,98349.12
2023-01-31T08:20:39.049Z,98356.83
2023-01-31T08:26:06.710Z,98362.55
2023-01-31T08:31:29.496Z,98376.12
2023-01-31T08:36:51.550Z,98381.16
2023-01-31T08:42:13.318Z,98394.63
2023-01-31T08:47:39.390Z,98404.23
2023-01-31T08:53:03.807Z,98406.89
2023-01-31T08:58:25.621Z,98406.84
2023-01-31T09:03:48.361Z,98408.84
2023-01-31T09:09:11.095Z,98411.45
2023-01-31T09:14:33.578Z,98418.77
2023-01-31T09:19:55.674Z,98425.83
2023-01-31T09:25:17.885Z,98440.09
2023-01-31T09:30:40.273Z,98444.52
2023-01-31T09:36:07.784Z,98449.15
2023-01-31T09:41:33.326Z,98449.23
2023-01-31T09:47:29.958Z,98455.84
2023-01-31T09:52:54.161Z,98454.88
2023-01-31T09:58:28.327Z,98459.85
2023-01-31T10:04:23.554Z,98457.80
2023-01-31T10:09:55.829Z,98457.61
2023-01-31T10:15:24.028Z,98454.10
2023-01-31T10:21:05.293Z,98462.78
2023-01-31T10:26:30.937Z,98456.84
2023-01-31T10:32:02.834Z,98454.52
2023-01-31T10:37:44.570Z,98448.41
2023-01-31T10:43:24.457Z,98445.62
2023-01-31T10:48:47.705Z,98442.05
2023-01-31T10:54:22.549Z,98428.48
2023-01-31T10:59:47.873Z,98426.73
2023-01-31T11:05:16.520Z,98427.16
2023-01-31T11:10:41.624Z,98423.44
2023-01-31T11:16:04.714Z,98421.00
2023-01-31T11:21:33.706Z,98413.71
2023-01-31T11:27:00.043Z,98408.05
2023-01-31T11:32:31.034Z,98400.85
2023-01-31T11:38:20.750Z,98401.38
2023-01-31T11:43:43.368Z,98396.34
2023-01-31T11:49:11.665Z,98393.71
2023-01-31T11:54:35.992Z,98387.39
2023-01-31T11:59:59.804Z,98382.27
2023-01-31T12:05:31.996Z,98371.66
2023-01-31T12:10:53.890Z,98368.84
2023-01-31T12:16:20.052Z,98373.73
2023-01-31T12:22:00.589Z,98364.85
2023-01-31T12:27:28.921Z,98359.30
2023-01-31T12:32:59.747Z,98360.39
2023-01-31T12:38:38.674Z,98361.80
2023-01-31T12:44:19.042Z,98354.55
2023-01-31T12:50:02.987Z,98347.64
2023-01-31T12:55:36.896Z,98340.80
2023-01-31T13:01:04.490Z,98342.14
2023-01-31T13:06:31.131Z,98329.39
2023-01-31T13:11:56.788Z,98327.63
2023-01-31T13:17:24.451Z,98326.14
2023-01-31T13:22:58.247Z,98322.44
2023-01-31T13:28:30.300Z,98319.77
2023-01-31T13:34:09.077Z,98328.75
2023-01-31T13:39:36.275Z,98324.41
2023-01-31T13:45:05.532Z,98323.46
2023-01-31T13:50:34.546Z,98322.14
2023-01-31T13:55:57.067Z,98324.27
2023-01-31T14:01:21.939Z,98327.19
2023-01-31T14:06:56.088Z,98316.47
2023-01-31T14:12:17.797Z,98315.30
2023-01-31T14:17:39.416Z,98305.84
2023-01-31T14:23:31.094Z,98296.02
2023-01-31T14:28:53.405Z,98291.06
2023-01-31T14:34:17.385Z,98285.45
2023-01-31T14:40:00.911Z,98285.48
2023-01-31T14:45:47.552Z,98276.50
2023-01-31T14:51:18.765Z,98269.38
2023-01-31T14:56:55.901Z,98271.55
2023-01-31T15:02:33.696Z,98269.83
2023-01-31T15:08:04.705Z,98271.38
2023-01-31T15:13:52.241Z,98276.27
2023-01-31T15:19:21.450Z,98273.18
2023-01-31T15:24:50.648Z,98267.31
2023-01-31T15:30:22.280Z,98261.07
2023-01-31T15:35:54.813Z,98257.55
2023-01-31T15:41:18.304Z,98247.88
2023-01-31T15:46:42.684Z,98242.30
2023-01-31T15:52:22.777Z,98244.45
2023-01-31T15:57:48.495Z,98241.64
2023-01-31T16:03:20.141Z,98241.75
2023-01-31T16:08:42.004Z,98238.27
2023-01-31T16:14:05.917Z,98236.13
2023-01-31T16:19:33.840Z,98238.67
2023-01-31T16:25:00.830Z,98246.93
2023-01-31T16:30:22.583Z,98253.80
2023-01-31T16:35:44.643Z,98256.88
2023-01-31T16:41:12.894Z,98253.34
2023-01-31T16:46:40.352Z,98252.51
2023-01-31T16:52:30.463Z,98245.15
2023-01-31T16:57:52.309Z,98243.05
2023-01-31T17:03:18.975Z,98231.06
2023-01-31T17:08:42.573Z,98230.41
2023-01-31T17:14:04.390Z,98221.04
2023-01-31T17:19:32.227Z,98217.61
2023-01-31T17:24:54.383Z,98220.71
2023-01-31T17:30:19.210Z,98216.94
2023-01-31T17:35:49.066Z,98211.89
2023-01-31T17:41:16.582Z,98202.38
2023-01-31T17:46:40.887Z,98190.77
2023-01-31T17:52:06.313Z,98180.86
2023-01-31T17:57:29.112Z,98179.91
2023-01-31T18:02:52.621Z,98172.80
2023-01-31T18:08:18.195Z,98164.36
2023-01-31T18:13:42.268Z,98156.35
2023-01-31T18:19:05.362Z,98150.96
2023-01-31T18:24:28.052Z,98137.63
2023-01-31T18:29:49.886Z,98133.50
2023-01-31T18:35:11.566Z,98130.67
2023-01-31T18:40:33.513Z,98119.63
2023-01-31T18:45:55.494Z,98108.39
2023-01-31T18:51:17.515Z,98102.02
2023-01-31T18:56:39.971Z,98092.25
2023-01-31T19:02:01.696Z,98086.55
2023-01-31T19:07:23.915Z,98084.41
2023-01-31T19:12:47.559Z,98073.80
2023-01-31T19:18:09.277Z,98070.43
2023-01-31T19:23:30.822Z,98065.02
2023-01-31T19:28:53.131Z,98055.59
2023-01-31T19:34:15.222Z,98043.27
2023-01-31T19:39:37.223Z,98032.02
2023-01-31T19:44:58.948Z,98020.52
2023-01-31T19:50:20.953Z,98023.69
2023-01-31T19:55:42.718Z,98022.67
2023-01-31T20:01:07.780Z,98023.41
2023-01-31T20:06:30.479Z,98024.20
2023-01-31T20:11:54.077Z,98016.23
2023-01-31T20:17:15.958Z,98012.34
2023-01-31T20:22:38.370Z,98006.13
2023-01-31T20:28:02.967Z,98005.98
2023-01-31T20:33:25.087Z,98006.65
2023-01-31T20:38:47.226Z,98001.55
2023-01-31T20:44:09.577Z,97989.11
2023-01-31T20:49:35.317Z,97993.61
2023-01-31T20:54:58.259Z,97986.46
2023-01-31T21:00:22.374Z,97980.25
2023-01-31T21:05:44.587Z,97980.73
2023-01-31T21:11:08.686Z,97975.45
2023-01-31T21:16:31.039Z,97958.32
2023-01-31T21:21:53.224Z,97945.47
2023-01-31T21:27:17.290Z,97940.35
2023-01-31T21:32:39.433Z,97941.72
2023-01-31T21:38:01.180Z,97940.11
2023-01-31T21:43:22.949Z,97947.89
2023-01-31T21:48:45.328Z,97949.04
2023-01-31T21:54:07.519Z,97947.37
2023-01-31T21:59:29.247Z,97946.40
2023-01-31T22:04:51.473Z,97937.26
2023-01-31T22:10:13.829Z,97934.83
2023-01-31T22:15:35.698Z,97937.48
2023-01-31T22:21:11.510Z,97934.59
2023-01-31T22:26:36.509Z,97934.70
2023-01-31T22:31:58.495Z,97939.84
2023-01-31T22:37:20.604Z,97933.79
2023-01-31T22:42:42.838Z,97918.00
2023-01-31T22:48:05.007Z,97905.11
2023-01-31T22:53:29.466Z,97906.15
2023-01-31T22:58:59.301Z,97910.94
2023-01-31T23:04:21.477Z,97922.81
2023-01-31T23:09:43.729Z,97917.48
2023-01-31T23:15:08.130Z,97918.86
2023-01-31T23:20:30.186Z,97915.14
2023-01-31T23:25:52.192Z,97908.66
2023-01-31T23:31:14.257Z,97905.73
2023-01-31T23:36:36.958Z,97890.91
2023-01-31T23:41:58.788Z,97878.23
2023-01-31T23:47:20.843Z,97884.83
2023-01-31T23:52:42.832Z,97894.60
2023-01-31T23:58:05.301Z,97896.86
